O64 weather

Port of Catoosa Heliport
Catoosa, Oklahoma, United States

Public forecast

Using degrees Fahrenheit for public forecast. Weather courtesy of forecast.io.

Closest aviation weather report (METAR) to Port of Catoosa Heliport

Closest report is Tulsa International Airport, 7.5 nm (13.9 km) WSW. Retrieved 2019/10/16 09:53 UTC (1 hour ago):

KTUL 160953Z 34006KT 10SM CLR 06/03 A3018 RMK AO2 SLP219 T00610028

Closest aviation forecast (TAF) to Port of Catoosa Heliport

Closest forecast is Tulsa International Airport, 7.5 nm (13.9 km) WSW. Retrieved 2019/10/16 06:22 UTC (5 hours ago):

TAF KTUL 160520Z 1606/1706 35008KT P6SM SKC FM170000 06003KT P6SM SKC